sensor_id;sensor_type;location;lat;lon;timestamp;temperature;humidity
59533;DHT22;45351;53.596;10.000;2022-09-09T00:00:13;24.90;55.70
59533;DHT22;45351;53.596;10.000;2022-09-09T00:02:43;24.90;55.20
59533;DHT22;45351;53.596;10.000;2022-09-09T00:05:17;24.90;55.40
59533;DHT22;45351;53.596;10.000;2022-09-09T00:07:48;24.90;55.10
59533;DHT22;45351;53.596;10.000;2022-09-09T00:10:19;24.90;55.30
59533;DHT22;45351;53.596;10.000;2022-09-09T00:12:57;24.90;55.40
59533;DHT22;45351;53.596;10.000;2022-09-09T00:15:30;24.90;55.30
59533;DHT22;45351;53.596;10.000;2022-09-09T00:18:08;24.90;55.40
59533;DHT22;45351;53.596;10.000;2022-09-09T00:20:42;24.90;55.50
59533;DHT22;45351;53.596;10.000;2022-09-09T00:23:13;24.90;55.50
59533;DHT22;45351;53.596;10.000;2022-09-09T00:25:46;24.90;55.50
59533;DHT22;45351;53.596;10.000;2022-09-09T00:28:20;24.90;55.60
59533;DHT22;45351;53.596;10.000;2022-09-09T00:30:47;24.90;55.50
59533;DHT22;45351;53.596;10.000;2022-09-09T00:33:17;24.90;55.60
59533;DHT22;45351;53.596;10.000;2022-09-09T00:35:49;24.90;55.50
59533;DHT22;45351;53.596;10.000;2022-09-09T00:38:19;24.90;55.40
59533;DHT22;45351;53.596;10.000;2022-09-09T00:40:50;24.90;55.40
59533;DHT22;45351;53.596;10.000;2022-09-09T00:43:27;24.90;55.50
59533;DHT22;45351;53.596;10.000;2022-09-09T00:46:21;24.90;55.50
59533;DHT22;45351;53.596;10.000;2022-09-09T00:48:58;24.90;56.00
59533;DHT22;45351;53.596;10.000;2022-09-09T00:51:34;24.90;56.00
59533;DHT22;45351;53.596;10.000;2022-09-09T00:54:16;24.90;56.00
59533;DHT22;45351;53.596;10.000;2022-09-09T00:56:49;24.90;56.20
59533;DHT22;45351;53.596;10.000;2022-09-09T00:59:28;24.90;56.20
59533;DHT22;45351;53.596;10.000;2022-09-09T01:02:01;24.90;56.40
59533;DHT22;45351;53.596;10.000;2022-09-09T01:04:32;24.90;56.30
59533;DHT22;45351;53.596;10.000;2022-09-09T01:07:07;24.90;56.30
59533;DHT22;45351;53.596;10.000;2022-09-09T01:09:45;24.90;56.40
59533;DHT22;45351;53.596;10.000;2022-09-09T01:12:16;24.90;56.40
59533;DHT22;45351;53.596;10.000;2022-09-09T01:14:51;24.90;56.50
59533;DHT22;45351;53.596;10.000;2022-09-09T01:17:26;24.90;56.50
59533;DHT22;45351;53.596;10.000;2022-09-09T01:20:08;24.90;56.30
59533;DHT22;45351;53.596;10.000;2022-09-09T01:22:50;24.90;56.50
59533;DHT22;45351;53.596;10.000;2022-09-09T01:25:29;24.90;56.70
59533;DHT22;45351;53.596;10.000;2022-09-09T01:28:09;24.90;56.50
59533;DHT22;45351;53.596;10.000;2022-09-09T01:30:40;24.90;56.40
59533;DHT22;45351;53.596;10.000;2022-09-09T01:33:13;24.90;56.40
59533;DHT22;45351;53.596;10.000;2022-09-09T01:35:45;24.90;56.60
59533;DHT22;45351;53.596;10.000;2022-09-09T01:38:17;24.90;56.80
59533;DHT22;45351;53.596;10.000;2022-09-09T01:40:45;24.90;56.90
59533;DHT22;45351;53.596;10.000;2022-09-09T01:43:14;24.90;56.90
59533;DHT22;45351;53.596;10.000;2022-09-09T01:45:41;25.00;56.80
59533;DHT22;45351;53.596;10.000;2022-09-09T01:48:09;25.00;56.80
59533;DHT22;45351;53.596;10.000;2022-09-09T01:51:01;24.90;56.70
59533;DHT22;45351;53.596;10.000;2022-09-09T01:53:49;24.90;56.80
59533;DHT22;45351;53.596;10.000;2022-09-09T01:56:43;24.90;56.90
59533;DHT22;45351;53.596;10.000;2022-09-09T01:59:45;24.90;56.90
59533;DHT22;45351;53.596;10.000;2022-09-09T02:02:37;24.90;57.00
59533;DHT22;45351;53.596;10.000;2022-09-09T02:05:21;24.90;57.00
59533;DHT22;45351;53.596;10.000;2022-09-09T02:07:59;24.90;57.00
59533;DHT22;45351;53.596;10.000;2022-09-09T02:10:42;24.90;57.00
59533;DHT22;45351;53.596;10.000;2022-09-09T02:13:17;24.90;57.10
59533;DHT22;45351;53.596;10.000;2022-09-09T02:15:52;24.90;57.00
59533;DHT22;45351;53.596;10.000;2022-09-09T02:18:24;24.90;57.10
59533;DHT22;45351;53.596;10.000;2022-09-09T02:20:53;24.90;57.10
59533;DHT22;45351;53.596;10.000;2022-09-09T02:23:20;24.90;57.10
59533;DHT22;45351;53.596;10.000;2022-09-09T02:25:52;24.90;57.00
59533;DHT22;45351;53.596;10.000;2022-09-09T02:28:24;24.90;57.10
59533;DHT22;45351;53.596;10.000;2022-09-09T02:30:54;24.90;57.10
59533;DHT22;45351;53.596;10.000;2022-09-09T02:33:30;24.90;57.10
59533;DHT22;45351;53.596;10.000;2022-09-09T02:35:58;24.90;57.00
59533;DHT22;45351;53.596;10.000;2022-09-09T02:38:33;24.90;57.10
59533;DHT22;45351;53.596;10.000;2022-09-09T02:41:08;24.90;57.10
59533;DHT22;45351;53.596;10.000;2022-09-09T02:43:36;24.90;57.10
59533;DHT22;45351;53.596;10.000;2022-09-09T02:46:23;24.90;57.10
59533;DHT22;45351;53.596;10.000;2022-09-09T02:48:57;24.90;57.20
59533;DHT22;45351;53.596;10.000;2022-09-09T02:51:35;24.90;57.20
59533;DHT22;45351;53.596;10.000;2022-09-09T02:54:12;24.90;57.10
59533;DHT22;45351;53.596;10.000;2022-09-09T02:56:47;24.90;56.70
59533;DHT22;45351;53.596;10.000;2022-09-09T02:59:16;24.90;57.00
59533;DHT22;45351;53.596;10.000;2022-09-09T03:01:45;24.90;56.90
59533;DHT22;45351;53.596;10.000;2022-09-09T03:04:12;24.90;57.00
59533;DHT22;45351;53.596;10.000;2022-09-09T03:06:40;24.90;56.90
59533;DHT22;45351;53.596;10.000;2022-09-09T03:09:16;24.90;57.00
59533;DHT22;45351;53.596;10.000;2022-09-09T03:11:43;24.90;57.00
59533;DHT22;45351;53.596;10.000;2022-09-09T03:14:11;24.90;56.90
59533;DHT22;45351;53.596;10.000;2022-09-09T03:16:37;24.90;56.90
59533;DHT22;45351;53.596;10.000;2022-09-09T03:19:06;24.90;56.70
59533;DHT22;45351;53.596;10.000;2022-09-09T03:21:32;24.90;56.80
59533;DHT22;45351;53.596;10.000;2022-09-09T03:23:59;24.90;56.70
59533;DHT22;45351;53.596;10.000;2022-09-09T03:26:29;24.90;56.80
59533;DHT22;45351;53.596;10.000;2022-09-09T03:28:57;24.90;56.70
59533;DHT22;45351;53.596;10.000;2022-09-09T03:31:26;24.90;56.80
59533;DHT22;45351;53.596;10.000;2022-09-09T03:33:56;24.90;56.80
59533;DHT22;45351;53.596;10.000;2022-09-09T03:36:25;24.90;56.80
59533;DHT22;45351;53.596;10.000;2022-09-09T03:38:54;24.90;56.80
59533;DHT22;45351;53.596;10.000;2022-09-09T03:41:22;24.90;56.80
59533;DHT22;45351;53.596;10.000;2022-09-09T03:43:50;24.90;56.90
59533;DHT22;45351;53.596;10.000;2022-09-09T03:46:17;24.90;56.70
59533;DHT22;45351;53.596;10.000;2022-09-09T03:48:44;24.90;56.80
59533;DHT22;45351;53.596;10.000;2022-09-09T03:51:11;24.90;56.90
59533;DHT22;45351;53.596;10.000;2022-09-09T03:53:40;24.90;56.90
59533;DHT22;45351;53.596;10.000;2022-09-09T03:56:07;24.90;56.80
59533;DHT22;45351;53.596;10.000;2022-09-09T03:58:34;24.90;56.90
59533;DHT22;45351;53.596;10.000;2022-09-09T04:01:07;24.90;56.70
59533;DHT22;45351;53.596;10.000;2022-09-09T04:03:35;24.90;56.80
59533;DHT22;45351;53.596;10.000;2022-09-09T04:06:04;24.90;56.80
59533;DHT22;45351;53.596;10.000;2022-09-09T04:08:32;24.90;56.80
59533;DHT22;45351;53.596;10.000;2022-09-09T04:11:03;24.90;56.70
59533;DHT22;45351;53.596;10.000;2022-09-09T04:13:31;24.90;56.60
59533;DHT22;45351;53.596;10.000;2022-09-09T04:15:59;24.90;56.70
59533;DHT22;45351;53.596;10.000;2022-09-09T04:18:27;24.90;56.70
59533;DHT22;45351;53.596;10.000;2022-09-09T04:20:54;24.90;56.70
59533;DHT22;45351;53.596;10.000;2022-09-09T04:23:24;24.90;56.70
59533;DHT22;45351;53.596;10.000;2022-09-09T04:25:54;24.90;56.70
59533;DHT22;45351;53.596;10.000;2022-09-09T04:28:24;24.90;56.80
59533;DHT22;45351;53.596;10.000;2022-09-09T04:30:52;24.90;56.90
59533;DHT22;45351;53.596;10.000;2022-09-09T04:33:20;24.90;56.70
59533;DHT22;45351;53.596;10.000;2022-09-09T04:35:50;24.90;56.70
59533;DHT22;45351;53.596;10.000;2022-09-09T04:38:20;24.90;56.70
59533;DHT22;45351;53.596;10.000;2022-09-09T04:40:49;24.90;56.70
59533;DHT22;45351;53.596;10.000;2022-09-09T04:43:17;24.90;57.20
59533;DHT22;45351;53.596;10.000;2022-09-09T04:45:49;24.90;57.10
59533;DHT22;45351;53.596;10.000;2022-09-09T04:48:18;24.90;57.10
59533;DHT22;45351;53.596;10.000;2022-09-09T04:50:54;24.90;56.70
59533;DHT22;45351;53.596;10.000;2022-09-09T04:53:21;24.90;56.70
59533;DHT22;45351;53.596;10.000;2022-09-09T04:55:48;24.90;56.60
59533;DHT22;45351;53.596;10.000;2022-09-09T04:58:15;24.90;56.60
59533;DHT22;45351;53.596;10.000;2022-09-09T05:00:42;24.90;56.50
59533;DHT22;45351;53.596;10.000;2022-09-09T05:03:11;24.90;56.40
59533;DHT22;45351;53.596;10.000;2022-09-09T05:05:38;24.90;56.40
59533;DHT22;45351;53.596;10.000;2022-09-09T05:08:07;24.90;56.00
59533;DHT22;45351;53.596;10.000;2022-09-09T05:10:37;24.90;56.00
59533;DHT22;45351;53.596;10.000;2022-09-09T05:13:05;24.90;55.90
59533;DHT22;45351;53.596;10.000;2022-09-09T05:15:32;24.90;55.70
59533;DHT22;45351;53.596;10.000;2022-09-09T05:18:00;24.90;55.70
59533;DHT22;45351;53.596;10.000;2022-09-09T05:20:31;24.90;55.70
59533;DHT22;45351;53.596;10.000;2022-09-09T05:22:58;24.90;55.70
59533;DHT22;45351;53.596;10.000;2022-09-09T05:25:28;24.90;55.50
59533;DHT22;45351;53.596;10.000;2022-09-09T05:27:55;24.90;55.50
59533;DHT22;45351;53.596;10.000;2022-09-09T05:30:23;24.90;55.40
59533;DHT22;45351;53.596;10.000;2022-09-09T05:32:52;24.90;55.40
59533;DHT22;45351;53.596;10.000;2022-09-09T05:35:18;24.90;55.20
59533;DHT22;45351;53.596;10.000;2022-09-09T05:37:47;24.90;55.30
59533;DHT22;45351;53.596;10.000;2022-09-09T05:40:14;24.90;55.40
59533;DHT22;45351;53.596;10.000;2022-09-09T05:42:41;24.90;55.40
59533;DHT22;45351;53.596;10.000;2022-09-09T05:45:09;24.90;55.30
59533;DHT22;45351;53.596;10.000;2022-09-09T05:47:37;24.80;55.20
59533;DHT22;45351;53.596;10.000;2022-09-09T05:50:08;24.80;55.00
59533;DHT22;45351;53.596;10.000;2022-09-09T05:52:34;24.80;54.90
59533;DHT22;45351;53.596;10.000;2022-09-09T05:55:07;24.80;54.80
59533;DHT22;45351;53.596;10.000;2022-09-09T05:57:34;24.80;54.80
59533;DHT22;45351;53.596;10.000;2022-09-09T06:00:01;24.80;54.70
59533;DHT22;45351;53.596;10.000;2022-09-09T06:02:39;24.80;54.60
59533;DHT22;45351;53.596;10.000;2022-09-09T06:05:08;24.80;54.60
59533;DHT22;45351;53.596;10.000;2022-09-09T06:07:36;24.80;54.50
59533;DHT22;45351;53.596;10.000;2022-09-09T06:10:10;24.80;54.50
59533;DHT22;45351;53.596;10.000;2022-09-09T06:12:39;24.80;54.40
59533;DHT22;45351;53.596;10.000;2022-09-09T06:15:07;24.80;54.40
59533;DHT22;45351;53.596;10.000;2022-09-09T06:17:34;24.80;54.30
59533;DHT22;45351;53.596;10.000;2022-09-09T06:20:02;24.80;54.40
59533;DHT22;45351;53.596;10.000;2022-09-09T06:22:31;24.80;54.30
59533;DHT22;45351;53.596;10.000;2022-09-09T06:24:58;24.80;54.40
59533;DHT22;45351;53.596;10.000;2022-09-09T06:27:28;24.70;54.30
59533;DHT22;45351;53.596;10.000;2022-09-09T06:29:55;24.70;54.20
59533;DHT22;45351;53.596;10.000;2022-09-09T06:32:22;24.80;54.40
59533;DHT22;45351;53.596;10.000;2022-09-09T06:34:49;24.80;54.40
59533;DHT22;45351;53.596;10.000;2022-09-09T06:37:16;24.80;54.30
59533;DHT22;45351;53.596;10.000;2022-09-09T06:39:47;24.70;54.20
59533;DHT22;45351;53.596;10.000;2022-09-09T06:42:14;24.70;54.10
59533;DHT22;45351;53.596;10.000;2022-09-09T06:44:58;24.70;54.10
59533;DHT22;45351;53.596;10.000;2022-09-09T06:47:43;24.70;54.10
59533;DHT22;45351;53.596;10.000;2022-09-09T06:50:10;24.60;54.10
59533;DHT22;45351;53.596;10.000;2022-09-09T06:52:37;24.70;54.10
59533;DHT22;45351;53.596;10.000;2022-09-09T06:55:05;24.60;54.10
59533;DHT22;45351;53.596;10.000;2022-09-09T06:57:33;24.60;54.00
59533;DHT22;45351;53.596;10.000;2022-09-09T07:00:03;24.60;54.00
59533;DHT22;45351;53.596;10.000;2022-09-09T07:02:31;24.60;54.00
59533;DHT22;45351;53.596;10.000;2022-09-09T07:04:57;24.60;53.90
59533;DHT22;45351;53.596;10.000;2022-09-09T07:07:25;24.70;54.00
59533;DHT22;45351;53.596;10.000;2022-09-09T07:09:52;24.60;53.90
59533;DHT22;45351;53.596;10.000;2022-09-09T07:12:19;24.60;53.80
59533;DHT22;45351;53.596;10.000;2022-09-09T07:14:53;24.60;53.80
59533;DHT22;45351;53.596;10.000;2022-09-09T07:17:22;24.60;53.80
59533;DHT22;45351;53.596;10.000;2022-09-09T07:19:49;24.60;53.80
59533;DHT22;45351;53.596;10.000;2022-09-09T07:22:16;24.60;53.80
59533;DHT22;45351;53.596;10.000;2022-09-09T07:24:45;24.60;53.80
59533;DHT22;45351;53.596;10.000;2022-09-09T07:27:13;24.60;53.80
59533;DHT22;45351;53.596;10.000;2022-09-09T07:29:40;24.60;53.80
59533;DHT22;45351;53.596;10.000;2022-09-09T07:32:08;24.60;53.80
59533;DHT22;45351;53.596;10.000;2022-09-09T07:34:38;24.60;53.80
59533;DHT22;45351;53.596;10.000;2022-09-09T07:37:05;24.60;53.80
59533;DHT22;45351;53.596;10.000;2022-09-09T07:39:33;24.60;53.80
59533;DHT22;45351;53.596;10.000;2022-09-09T07:42:00;24.60;53.80
59533;DHT22;45351;53.596;10.000;2022-09-09T07:44:28;24.60;53.80
59533;DHT22;45351;53.596;10.000;2022-09-09T07:47:00;24.60;53.80
59533;DHT22;45351;53.596;10.000;2022-09-09T07:49:33;24.60;53.80
59533;DHT22;45351;53.596;10.000;2022-09-09T07:52:03;24.60;53.80
59533;DHT22;45351;53.596;10.000;2022-09-09T07:54:32;24.60;53.90
59533;DHT22;45351;53.596;10.000;2022-09-09T07:57:00;24.60;53.90
59533;DHT22;45351;53.596;10.000;2022-09-09T07:59:30;24.60;53.80
59533;DHT22;45351;53.596;10.000;2022-09-09T08:01:57;24.60;53.80
59533;DHT22;45351;53.596;10.000;2022-09-09T08:04:27;24.60;54.40
59533;DHT22;45351;53.596;10.000;2022-09-09T08:06:56;24.70;53.80
59533;DHT22;45351;53.596;10.000;2022-09-09T08:09:27;24.70;53.80
59533;DHT22;45351;53.596;10.000;2022-09-09T08:12:01;24.70;53.80
59533;DHT22;45351;53.596;10.000;2022-09-09T08:14:29;24.70;53.80
59533;DHT22;45351;53.596;10.000;2022-09-09T08:16:57;24.70;53.80
59533;DHT22;45351;53.596;10.000;2022-09-09T08:19:26;24.70;53.70
59533;DHT22;45351;53.596;10.000;2022-09-09T08:21:55;24.70;53.70
59533;DHT22;45351;53.596;10.000;2022-09-09T08:24:22;24.70;53.70
59533;DHT22;45351;53.596;10.000;2022-09-09T08:26:52;24.70;53.70
59533;DHT22;45351;53.596;10.000;2022-09-09T08:29:22;24.70;53.70
59533;DHT22;45351;53.596;10.000;2022-09-09T08:31:52;24.70;53.70
59533;DHT22;45351;53.596;10.000;2022-09-09T08:34:20;24.70;53.70
59533;DHT22;45351;53.596;10.000;2022-09-09T08:36:50;24.70;53.70
59533;DHT22;45351;53.596;10.000;2022-09-09T08:39:21;24.70;53.60
59533;DHT22;45351;53.596;10.000;2022-09-09T08:42:08;24.70;53.60
59533;DHT22;45351;53.596;10.000;2022-09-09T08:44:59;24.70;53.60
59533;DHT22;45351;53.596;10.000;2022-09-09T08:47:37;24.70;53.60
59533;DHT22;45351;53.596;10.000;2022-09-09T08:50:19;24.70;53.50
59533;DHT22;45351;53.596;10.000;2022-09-09T08:52:56;24.60;53.40
59533;DHT22;45351;53.596;10.000;2022-09-09T08:55:31;24.70;53.50
59533;DHT22;45351;53.596;10.000;2022-09-09T08:58:09;24.70;53.50
59533;DHT22;45351;53.596;10.000;2022-09-09T09:00:44;24.70;53.50
59533;DHT22;45351;53.596;10.000;2022-09-09T09:03:18;24.70;53.50
59533;DHT22;45351;53.596;10.000;2022-09-09T09:05:51;24.70;53.50
59533;DHT22;45351;53.596;10.000;2022-09-09T09:08:27;24.70;53.50
59533;DHT22;45351;53.596;10.000;2022-09-09T09:10:56;24.70;53.40
59533;DHT22;45351;53.596;10.000;2022-09-09T09:13:33;24.70;53.40
59533;DHT22;45351;53.596;10.000;2022-09-09T09:16:06;24.70;53.30
59533;DHT22;45351;53.596;10.000;2022-09-09T09:18:36;24.70;53.30
59533;DHT22;45351;53.596;10.000;2022-09-09T09:21:08;24.70;53.30
59533;DHT22;45351;53.596;10.000;2022-09-09T09:23:43;24.70;53.30
59533;DHT22;45351;53.596;10.000;2022-09-09T09:26:12;24.70;53.30
59533;DHT22;45351;53.596;10.000;2022-09-09T09:28:41;24.70;53.30
59533;DHT22;45351;53.596;10.000;2022-09-09T09:31:15;24.70;53.30
59533;DHT22;45351;53.596;10.000;2022-09-09T09:33:48;24.70;53.30
59533;DHT22;45351;53.596;10.000;2022-09-09T09:36:17;24.70;53.30
59533;DHT22;45351;53.596;10.000;2022-09-09T09:38:55;24.70;53.30
59533;DHT22;45351;53.596;10.000;2022-09-09T09:41:30;24.80;53.40
59533;DHT22;45351;53.596;10.000;2022-09-09T09:43:59;24.80;53.30
59533;DHT22;45351;53.596;10.000;2022-09-09T09:46:28;24.80;53.30
59533;DHT22;45351;53.596;10.000;2022-09-09T09:49:09;24.80;53.20
59533;DHT22;45351;53.596;10.000;2022-09-09T09:51:38;24.80;53.30
59533;DHT22;45351;53.596;10.000;2022-09-09T09:54:14;24.80;53.20
59533;DHT22;45351;53.596;10.000;2022-09-09T09:56:45;24.80;53.20
59533;DHT22;45351;53.596;10.000;2022-09-09T09:59:23;24.80;53.20
59533;DHT22;45351;53.596;10.000;2022-09-09T10:01:50;24.80;53.20
59533;DHT22;45351;53.596;10.000;2022-09-09T10:04:21;24.80;53.20
59533;DHT22;45351;53.596;10.000;2022-09-09T10:06:50;24.80;53.20
59533;DHT22;45351;53.596;10.000;2022-09-09T10:09:24;24.80;53.20
59533;DHT22;45351;53.596;10.000;2022-09-09T10:11:57;24.80;53.10
59533;DHT22;45351;53.596;10.000;2022-09-09T10:14:35;24.80;53.20
59533;DHT22;45351;53.596;10.000;2022-09-09T10:17:16;24.80;53.10
59533;DHT22;45351;53.596;10.000;2022-09-09T10:19:58;24.80;53.10
59533;DHT22;45351;53.596;10.000;2022-09-09T10:22:27;24.80;53.00
59533;DHT22;45351;53.596;10.000;2022-09-09T10:25:22;24.80;53.00
59533;DHT22;45351;53.596;10.000;2022-09-09T10:28:15;24.80;52.90
59533;DHT22;45351;53.596;10.000;2022-09-09T10:30:50;24.80;53.00
59533;DHT22;45351;53.596;10.000;2022-09-09T10:33:26;24.80;53.00
59533;DHT22;45351;53.596;10.000;2022-09-09T10:36:04;24.80;53.00
59533;DHT22;45351;53.596;10.000;2022-09-09T10:38:39;24.80;53.00
59533;DHT22;45351;53.596;10.000;2022-09-09T10:41:16;24.80;52.90
59533;DHT22;45351;53.596;10.000;2022-09-09T10:44:17;24.80;52.90
59533;DHT22;45351;53.596;10.000;2022-09-09T10:47:01;24.80;53.00
59533;DHT22;45351;53.596;10.000;2022-09-09T10:49:52;24.80;53.10
59533;DHT22;45351;53.596;10.000;2022-09-09T10:52:25;24.80;53.10
59533;DHT22;45351;53.596;10.000;2022-09-09T10:54:56;24.80;53.10
59533;DHT22;45351;53.596;10.000;2022-09-09T10:57:28;24.80;53.30
59533;DHT22;45351;53.596;10.000;2022-09-09T11:00:02;24.80;53.20
59533;DHT22;45351;53.596;10.000;2022-09-09T11:02:33;24.80;53.20
59533;DHT22;45351;53.596;10.000;2022-09-09T11:05:03;24.80;53.20
59533;DHT22;45351;53.596;10.000;2022-09-09T11:07:35;24.80;53.20
59533;DHT22;45351;53.596;10.000;2022-09-09T11:10:16;24.80;53.20
59533;DHT22;45351;53.596;10.000;2022-09-09T11:12:45;24.90;53.30
59533;DHT22;45351;53.596;10.000;2022-09-09T11:15:18;24.90;53.30
59533;DHT22;45351;53.596;10.000;2022-09-09T11:17:50;24.90;53.30
59533;DHT22;45351;53.596;10.000;2022-09-09T11:20:20;24.90;53.30
59533;DHT22;45351;53.596;10.000;2022-09-09T11:22:50;24.90;53.30
59533;DHT22;45351;53.596;10.000;2022-09-09T11:25:22;24.90;53.40
59533;DHT22;45351;53.596;10.000;2022-09-09T11:28:01;24.90;53.40
59533;DHT22;45351;53.596;10.000;2022-09-09T11:30:37;24.90;53.40
59533;DHT22;45351;53.596;10.000;2022-09-09T11:33:37;24.90;53.40
59533;DHT22;45351;53.596;10.000;2022-09-09T11:36:34;24.90;53.40
59533;DHT22;45351;53.596;10.000;2022-09-09T11:39:21;24.90;53.40
59533;DHT22;45351;53.596;10.000;2022-09-09T11:41:52;24.90;53.50
59533;DHT22;45351;53.596;10.000;2022-09-09T11:44:30;24.90;53.50
59533;DHT22;45351;53.596;10.000;2022-09-09T11:46:57;24.90;53.50
59533;DHT22;45351;53.596;10.000;2022-09-09T11:49:28;24.90;53.50
59533;DHT22;45351;53.596;10.000;2022-09-09T11:51:57;24.90;53.50
59533;DHT22;45351;53.596;10.000;2022-09-09T11:54:33;24.90;53.70
59533;DHT22;45351;53.596;10.000;2022-09-09T11:57:25;24.90;53.50
59533;DHT22;45351;53.596;10.000;2022-09-09T11:59:56;24.90;53.60
59533;DHT22;45351;53.596;10.000;2022-09-09T12:02:24;24.90;53.60
59533;DHT22;45351;53.596;10.000;2022-09-09T12:04:59;24.90;53.60
59533;DHT22;45351;53.596;10.000;2022-09-09T12:07:34;24.90;53.70
59533;DHT22;45351;53.596;10.000;2022-09-09T12:10:19;24.90;53.80
59533;DHT22;45351;53.596;10.000;2022-09-09T12:12:46;24.90;53.80
59533;DHT22;45351;53.596;10.000;2022-09-09T12:15:20;24.90;54.00
59533;DHT22;45351;53.596;10.000;2022-09-09T12:17:49;24.90;54.20
59533;DHT22;45351;53.596;10.000;2022-09-09T12:20:20;24.90;54.20
59533;DHT22;45351;53.596;10.000;2022-09-09T12:23:09;24.90;54.30
59533;DHT22;45351;53.596;10.000;2022-09-09T12:28:44;24.90;54.30
59533;DHT22;45351;53.596;10.000;2022-09-09T12:31:18;24.90;54.20
59533;DHT22;45351;53.596;10.000;2022-09-09T12:33:48;24.90;54.10
59533;DHT22;45351;53.596;10.000;2022-09-09T12:36:19;24.90;54.10
59533;DHT22;45351;53.596;10.000;2022-09-09T12:38:48;24.90;54.00
59533;DHT22;45351;53.596;10.000;2022-09-09T12:41:21;24.90;54.00
59533;DHT22;45351;53.596;10.000;2022-09-09T12:43:48;24.90;53.90
59533;DHT22;45351;53.596;10.000;2022-09-09T12:46:23;24.90;53.80
59533;DHT22;45351;53.596;10.000;2022-09-09T12:48:54;24.90;53.80
59533;DHT22;45351;53.596;10.000;2022-09-09T12:51:26;24.90;53.80
59533;DHT22;45351;53.596;10.000;2022-09-09T12:53:54;24.90;53.70
59533;DHT22;45351;53.596;10.000;2022-09-09T12:56:23;24.90;53.70
59533;DHT22;45351;53.596;10.000;2022-09-09T12:58:53;24.90;53.70
59533;DHT22;45351;53.596;10.000;2022-09-09T13:01:23;24.90;53.70
59533;DHT22;45351;53.596;10.000;2022-09-09T13:03:50;24.90;53.70
59533;DHT22;45351;53.596;10.000;2022-09-09T13:06:21;24.90;53.70
59533;DHT22;45351;53.596;10.000;2022-09-09T13:08:50;24.90;53.60
59533;DHT22;45351;53.596;10.000;2022-09-09T13:11:19;24.90;53.60
59533;DHT22;45351;53.596;10.000;2022-09-09T13:13:51;24.90;53.60
59533;DHT22;45351;53.596;10.000;2022-09-09T13:16:20;24.90;53.60
59533;DHT22;45351;53.596;10.000;2022-09-09T13:18:48;24.90;53.60
59533;DHT22;45351;53.596;10.000;2022-09-09T13:21:16;24.90;53.60
59533;DHT22;45351;53.596;10.000;2022-09-09T13:23:50;24.90;53.60
59533;DHT22;45351;53.596;10.000;2022-09-09T13:26:23;24.90;53.50
59533;DHT22;45351;53.596;10.000;2022-09-09T13:28:50;24.90;53.50
59533;DHT22;45351;53.596;10.000;2022-09-09T13:31:23;24.90;53.50
59533;DHT22;45351;53.596;10.000;2022-09-09T13:33:50;24.90;53.50
59533;DHT22;45351;53.596;10.000;2022-09-09T13:36:28;24.90;53.50
59533;DHT22;45351;53.596;10.000;2022-09-09T13:38:58;24.90;53.50
59533;DHT22;45351;53.596;10.000;2022-09-09T13:41:30;24.90;53.50
59533;DHT22;45351;53.596;10.000;2022-09-09T13:43:58;24.90;53.50
59533;DHT22;45351;53.596;10.000;2022-09-09T13:46:31;24.90;53.50
59533;DHT22;45351;53.596;10.000;2022-09-09T13:48:59;24.90;53.50
59533;DHT22;45351;53.596;10.000;2022-09-09T13:51:34;24.90;53.50
59533;DHT22;45351;53.596;10.000;2022-09-09T13:54:04;24.90;53.50
59533;DHT22;45351;53.596;10.000;2022-09-09T13:56:32;24.90;53.50
59533;DHT22;45351;53.596;10.000;2022-09-09T13:58:59;24.90;53.50
59533;DHT22;45351;53.596;10.000;2022-09-09T14:01:26;24.90;53.50
59533;DHT22;45351;53.596;10.000;2022-09-09T14:03:54;24.90;53.50
59533;DHT22;45351;53.596;10.000;2022-09-09T14:06:21;24.90;54.10
59533;DHT22;45351;53.596;10.000;2022-09-09T14:08:49;24.90;53.50
59533;DHT22;45351;53.596;10.000;2022-09-09T14:11:18;24.90;53.60
59533;DHT22;45351;53.596;10.000;2022-09-09T14:13:47;24.90;53.60
59533;DHT22;45351;53.596;10.000;2022-09-09T14:16:15;24.90;53.70
59533;DHT22;45351;53.596;10.000;2022-09-09T14:18:43;24.90;53.60
59533;DHT22;45351;53.596;10.000;2022-09-09T14:21:10;24.90;53.70
59533;DHT22;45351;53.596;10.000;2022-09-09T14:23:37;24.90;53.60
59533;DHT22;45351;53.596;10.000;2022-09-09T14:26:04;24.90;53.60
59533;DHT22;45351;53.596;10.000;2022-09-09T14:28:33;24.80;53.70
59533;DHT22;45351;53.596;10.000;2022-09-09T14:31:00;24.80;53.60
59533;DHT22;45351;53.596;10.000;2022-09-09T14:33:27;24.80;53.60
59533;DHT22;45351;53.596;10.000;2022-09-09T14:35:56;24.80;53.70
59533;DHT22;45351;53.596;10.000;2022-09-09T14:38:23;24.80;53.70
59533;DHT22;45351;53.596;10.000;2022-09-09T14:40:50;24.80;54.30
59533;DHT22;45351;53.596;10.000;2022-09-09T14:43:17;24.80;53.70
59533;DHT22;45351;53.596;10.000;2022-09-09T14:45:45;24.80;53.70
59533;DHT22;45351;53.596;10.000;2022-09-09T14:48:13;24.80;53.70
59533;DHT22;45351;53.596;10.000;2022-09-09T14:50:40;24.80;53.80
59533;DHT22;45351;53.596;10.000;2022-09-09T14:53:07;24.80;53.60
59533;DHT22;45351;53.596;10.000;2022-09-09T14:55:34;24.80;53.60
59533;DHT22;45351;53.596;10.000;2022-09-09T14:58:02;24.80;53.60
59533;DHT22;45351;53.596;10.000;2022-09-09T15:00:29;24.80;53.60
59533;DHT22;45351;53.596;10.000;2022-09-09T15:02:57;24.80;53.60
59533;DHT22;45351;53.596;10.000;2022-09-09T15:05:24;24.80;53.60
59533;DHT22;45351;53.596;10.000;2022-09-09T15:07:51;24.80;53.60
59533;DHT22;45351;53.596;10.000;2022-09-09T15:10:17;24.80;53.60
59533;DHT22;45351;53.596;10.000;2022-09-09T15:12:44;24.80;53.50
59533;DHT22;45351;53.596;10.000;2022-09-09T15:15:11;24.80;53.50
59533;DHT22;45351;53.596;10.000;2022-09-09T15:17:39;24.80;53.50
59533;DHT22;45351;53.596;10.000;2022-09-09T15:20:08;24.80;54.20
59533;DHT22;45351;53.596;10.000;2022-09-09T15:22:35;24.80;53.50
59533;DHT22;45351;53.596;10.000;2022-09-09T15:25:04;24.80;53.50
59533;DHT22;45351;53.596;10.000;2022-09-09T15:27:33;24.80;53.50
59533;DHT22;45351;53.596;10.000;2022-09-09T15:30:00;24.80;53.50
59533;DHT22;45351;53.596;10.000;2022-09-09T15:32:28;24.80;53.50
59533;DHT22;45351;53.596;10.000;2022-09-09T15:34:54;24.80;53.50
59533;DHT22;45351;53.596;10.000;2022-09-09T15:37:22;24.80;53.50
59533;DHT22;45351;53.596;10.000;2022-09-09T15:39:49;24.80;53.50
59533;DHT22;45351;53.596;10.000;2022-09-09T15:42:16;24.90;53.60
59533;DHT22;45351;53.596;10.000;2022-09-09T15:44:43;24.80;53.50